sensor_id;sensor_type;location;lat;lon;timestamp;pressure;altitude;pressure_sealevel;temperature;humidity
15678;BME280;7939;50.814;6.368;2024-03-06T00:00:06;100033.31;;;12.24;61.48
15678;BME280;7939;50.814;6.368;2024-03-06T00:02:34;100036.75;;;12.23;61.56
15678;BME280;7939;50.814;6.368;2024-03-06T00:05:02;100037.59;;;12.19;60.82
15678;BME280;7939;50.814;6.368;2024-03-06T00:07:30;100041.91;;;12.08;61.20
15678;BME280;7939;50.814;6.368;2024-03-06T00:09:56;100037.63;;;12.05;60.88
15678;BME280;7939;50.814;6.368;2024-03-06T00:12:23;100046.19;;;12.07;61.42
15678;BME280;7939;50.814;6.368;2024-03-06T00:14:50;100042.78;;;12.08;61.43
15678;BME280;7939;50.814;6.368;2024-03-06T00:17:16;100038.50;;;12.06;61.02
15678;BME280;7939;50.814;6.368;2024-03-06T00:19:43;100037.66;;;12.08;61.34
15678;BME280;7939;50.814;6.368;2024-03-06T00:22:11;100037.63;;;12.10;61.69
15678;BME280;7939;50.814;6.368;2024-03-06T00:24:38;100044.47;;;12.08;61.07
15678;BME280;7939;50.814;6.368;2024-03-06T00:27:05;100052.19;;;11.96;61.14
15678;BME280;7939;50.814;6.368;2024-03-06T00:29:32;100044.50;;;11.97;61.60
15678;BME280;7939;50.814;6.368;2024-03-06T00:31:58;100047.94;;;11.95;61.66
15678;BME280;7939;50.814;6.368;2024-03-06T00:34:25;100058.16;;;11.92;60.97
15678;BME280;7939;50.814;6.368;2024-03-06T00:36:52;100060.72;;;11.95;61.44
15678;BME280;7939;50.814;6.368;2024-03-06T00:39:21;100061.59;;;11.84;60.99
15678;BME280;7939;50.814;6.368;2024-03-06T00:41:47;100060.72;;;11.84;60.55
15678;BME280;7939;50.814;6.368;2024-03-06T00:44:15;100065.00;;;11.83;60.50
15678;BME280;7939;50.814;6.368;2024-03-06T00:46:42;100070.09;;;11.77;60.17
15678;BME280;7939;50.814;6.368;2024-03-06T00:49:08;100075.19;;;11.80;60.18
15678;BME280;7939;50.814;6.368;2024-03-06T00:51:35;100073.50;;;11.78;61.00
15678;BME280;7939;50.814;6.368;2024-03-06T00:54:02;100070.06;;;11.79;60.50
15678;BME280;7939;50.814;6.368;2024-03-06T00:56:31;100076.09;;;11.82;60.71
15678;BME280;7939;50.814;6.368;2024-03-06T00:58:58;100070.94;;;11.73;60.24
15678;BME280;7939;50.814;6.368;2024-03-06T01:01:23;100079.47;;;11.71;60.63
15678;BME280;7939;50.814;6.368;2024-03-06T01:03:52;100074.34;;;11.68;60.56
15678;BME280;7939;50.814;6.368;2024-03-06T01:06:18;100080.31;;;11.68;61.06
15678;BME280;7939;50.814;6.368;2024-03-06T01:08:45;100080.31;;;11.67;60.30
15678;BME280;7939;50.814;6.368;2024-03-06T01:11:12;100082.03;;;11.68;60.01
15678;BME280;7939;50.814;6.368;2024-03-06T01:13:41;100090.56;;;11.67;60.14
15678;BME280;7939;50.814;6.368;2024-03-06T01:16:08;100095.69;;;11.64;60.60
15678;BME280;7939;50.814;6.368;2024-03-06T01:18:34;100088.84;;;11.59;60.09
15678;BME280;7939;50.814;6.368;2024-03-06T01:21:01;100091.41;;;11.53;60.35
15678;BME280;7939;50.814;6.368;2024-03-06T01:23:29;100105.94;;;11.57;60.52
15678;BME280;7939;50.814;6.368;2024-03-06T01:25:55;100097.38;;;11.55;60.49
15678;BME280;7939;50.814;6.368;2024-03-06T01:28:22;100099.94;;;11.54;60.52
15678;BME280;7939;50.814;6.368;2024-03-06T01:30:50;100104.22;;;11.50;60.63
15678;BME280;7939;50.814;6.368;2024-03-06T01:33:17;100097.38;;;11.48;60.57
15678;BME280;7939;50.814;6.368;2024-03-06T01:35:43;100094.81;;;11.48;60.34
15678;BME280;7939;50.814;6.368;2024-03-06T01:38:10;100103.34;;;11.48;60.90
15678;BME280;7939;50.814;6.368;2024-03-06T01:40:37;100102.50;;;11.46;60.35
15678;BME280;7939;50.814;6.368;2024-03-06T01:43:04;100093.09;;;11.41;60.82
15678;BME280;7939;50.814;6.368;2024-03-06T01:45:30;100105.91;;;11.48;60.38
15678;BME280;7939;50.814;6.368;2024-03-06T01:47:59;100104.19;;;11.40;61.13
15678;BME280;7939;50.814;6.368;2024-03-06T01:50:26;100106.75;;;11.38;60.62
15678;BME280;7939;50.814;6.368;2024-03-06T01:52:53;100106.75;;;11.41;60.25
15678;BME280;7939;50.814;6.368;2024-03-06T01:55:20;100109.31;;;11.41;60.10
15678;BME280;7939;50.814;6.368;2024-03-06T01:57:46;100103.34;;;11.39;59.90
15678;BME280;7939;50.814;6.368;2024-03-06T02:00:13;100108.44;;;11.38;60.15
15678;BME280;7939;50.814;6.368;2024-03-06T02:02:42;100106.72;;;11.37;60.40
15678;BME280;7939;50.814;6.368;2024-03-06T02:05:11;100105.88;;;11.36;60.36
15678;BME280;7939;50.814;6.368;2024-03-06T02:07:39;100102.47;;;11.37;60.60
15678;BME280;7939;50.814;6.368;2024-03-06T02:10:07;100104.19;;;11.33;59.94
15678;BME280;7939;50.814;6.368;2024-03-06T02:12:35;100105.88;;;11.33;59.88
15678;BME280;7939;50.814;6.368;2024-03-06T02:15:02;100105.03;;;11.34;60.97
15678;BME280;7939;50.814;6.368;2024-03-06T02:17:29;100104.16;;;11.35;60.33
15678;BME280;7939;50.814;6.368;2024-03-06T02:19:56;100099.91;;;11.34;60.43
15678;BME280;7939;50.814;6.368;2024-03-06T02:22:25;100103.31;;;11.33;60.79
15678;BME280;7939;50.814;6.368;2024-03-06T02:24:52;100099.88;;;11.31;60.81
15678;BME280;7939;50.814;6.368;2024-03-06T02:27:18;100102.44;;;11.31;60.34
15678;BME280;7939;50.814;6.368;2024-03-06T02:29:45;100105.84;;;11.30;59.95
15678;BME280;7939;50.814;6.368;2024-03-06T02:32:12;100110.13;;;11.28;60.03
15678;BME280;7939;50.814;6.368;2024-03-06T02:34:40;100111.81;;;11.24;60.35
15678;BME280;7939;50.814;6.368;2024-03-06T02:37:07;100105.88;;;11.27;60.25
15678;BME280;7939;50.814;6.368;2024-03-06T02:39:35;100110.97;;;11.27;60.56
15678;BME280;7939;50.814;6.368;2024-03-06T02:42:02;100105.00;;;11.20;59.69
15678;BME280;7939;50.814;6.368;2024-03-06T02:44:29;100106.69;;;11.23;60.05
15678;BME280;7939;50.814;6.368;2024-03-06T02:46:56;100104.13;;;11.23;59.98
15678;BME280;7939;50.814;6.368;2024-03-06T02:49:22;100096.47;;;11.21;60.12
15678;BME280;7939;50.814;6.368;2024-03-06T02:51:49;100093.91;;;11.20;60.12
15678;BME280;7939;50.814;6.368;2024-03-06T02:54:16;100093.06;;;11.22;60.41
15678;BME280;7939;50.814;6.368;2024-03-06T02:56:44;100096.44;;;11.18;60.64
15678;BME280;7939;50.814;6.368;2024-03-06T02:59:10;100101.59;;;11.20;60.30
15678;BME280;7939;50.814;6.368;2024-03-06T03:01:37;100093.91;;;11.15;59.90
15678;BME280;7939;50.814;6.368;2024-03-06T03:04:04;100098.16;;;11.15;60.54
15678;BME280;7939;50.814;6.368;2024-03-06T03:06:33;100094.75;;;11.13;60.49
15678;BME280;7939;50.814;6.368;2024-03-06T03:09:00;100098.13;;;11.12;60.52
15678;BME280;7939;50.814;6.368;2024-03-06T03:11:26;100097.28;;;11.11;60.48
15678;BME280;7939;50.814;6.368;2024-03-06T03:13:54;100099.84;;;11.11;59.93
15678;BME280;7939;50.814;6.368;2024-03-06T03:16:22;100106.66;;;11.07;60.34
15678;BME280;7939;50.814;6.368;2024-03-06T03:18:49;100103.25;;;11.07;60.06
15678;BME280;7939;50.814;6.368;2024-03-06T03:21:15;100111.75;;;11.04;59.68
15678;BME280;7939;50.814;6.368;2024-03-06T03:23:42;100112.59;;;11.05;59.79
15678;BME280;7939;50.814;6.368;2024-03-06T03:26:09;100110.91;;;11.02;59.39
15678;BME280;7939;50.814;6.368;2024-03-06T03:28:37;100121.13;;;10.96;60.15
15678;BME280;7939;50.814;6.368;2024-03-06T03:31:07;100119.41;;;10.95;59.23
15678;BME280;7939;50.814;6.368;2024-03-06T03:33:34;100116.84;;;10.95;60.09
15678;BME280;7939;50.814;6.368;2024-03-06T03:36:04;100125.38;;;10.96;59.67
15678;BME280;7939;50.814;6.368;2024-03-06T03:38:31;100132.16;;;10.92;60.12
15678;BME280;7939;50.814;6.368;2024-03-06T03:40:58;100136.47;;;10.96;59.96
15678;BME280;7939;50.814;6.368;2024-03-06T03:43:24;100150.09;;;10.94;60.38
15678;BME280;7939;50.814;6.368;2024-03-06T03:45:51;100140.69;;;10.93;59.70
15678;BME280;7939;50.814;6.368;2024-03-06T03:48:19;100147.50;;;10.92;59.83
15678;BME280;7939;50.814;6.368;2024-03-06T03:50:46;100162.03;;;10.95;59.60
15678;BME280;7939;50.814;6.368;2024-03-06T03:53:13;100157.72;;;10.89;60.17
15678;BME280;7939;50.814;6.368;2024-03-06T03:55:39;100166.28;;;10.94;59.96
15678;BME280;7939;50.814;6.368;2024-03-06T03:58:06;100173.06;;;10.89;59.68
15678;BME280;7939;50.814;6.368;2024-03-06T04:00:33;100181.59;;;10.91;59.57
15678;BME280;7939;50.814;6.368;2024-03-06T04:03:00;100178.19;;;10.91;59.62
15678;BME280;7939;50.814;6.368;2024-03-06T04:05:29;100184.16;;;10.90;60.08
15678;BME280;7939;50.814;6.368;2024-03-06T04:07:56;100192.66;;;10.86;59.72
15678;BME280;7939;50.814;6.368;2024-03-06T04:10:23;100190.09;;;10.86;59.95
15678;BME280;7939;50.814;6.368;2024-03-06T04:12:50;100195.19;;;10.84;59.36
15678;BME280;7939;50.814;6.368;2024-03-06T04:15:17;100191.78;;;10.84;59.55
15678;BME280;7939;50.814;6.368;2024-03-06T04:17:44;100202.00;;;10.85;59.15
15678;BME280;7939;50.814;6.368;2024-03-06T04:20:11;100192.66;;;10.86;59.99
15678;BME280;7939;50.814;6.368;2024-03-06T04:22:39;100193.50;;;10.85;59.78
15678;BME280;7939;50.814;6.368;2024-03-06T04:25:07;100191.78;;;10.82;60.08
15678;BME280;7939;50.814;6.368;2024-03-06T04:27:35;100192.66;;;10.84;59.50
15678;BME280;7939;50.814;6.368;2024-03-06T04:30:01;100198.59;;;10.85;59.41
15678;BME280;7939;50.814;6.368;2024-03-06T04:32:29;100192.59;;;10.79;59.49
15678;BME280;7939;50.814;6.368;2024-03-06T04:34:56;100196.00;;;10.78;59.76
15678;BME280;7939;50.814;6.368;2024-03-06T04:37:22;100201.13;;;10.77;59.33
15678;BME280;7939;50.814;6.368;2024-03-06T04:39:50;100196.00;;;10.77;59.55
15678;BME280;7939;50.814;6.368;2024-03-06T04:42:17;100195.97;;;10.74;60.03
15678;BME280;7939;50.814;6.368;2024-03-06T04:44:45;100204.53;;;10.76;59.91
15678;BME280;7939;50.814;6.368;2024-03-06T04:47:12;100205.38;;;10.75;58.92
15678;BME280;7939;50.814;6.368;2024-03-06T04:49:39;100204.50;;;10.73;59.28
15678;BME280;7939;50.814;6.368;2024-03-06T04:52:05;100207.91;;;10.73;59.24
15678;BME280;7939;50.814;6.368;2024-03-06T04:54:32;100211.31;;;10.69;59.57
15678;BME280;7939;50.814;6.368;2024-03-06T04:57:00;100207.91;;;10.69;59.14
15678;BME280;7939;50.814;6.368;2024-03-06T04:59:28;100209.56;;;10.68;59.07
15678;BME280;7939;50.814;6.368;2024-03-06T05:01:54;100217.25;;;10.65;59.72
15678;BME280;7939;50.814;6.368;2024-03-06T05:04:21;100219.78;;;10.67;59.54
15678;BME280;7939;50.814;6.368;2024-03-06T05:06:48;100220.63;;;10.64;59.45
15678;BME280;7939;50.814;6.368;2024-03-06T05:09:15;100220.63;;;10.63;59.40
15678;BME280;7939;50.814;6.368;2024-03-06T05:11:42;100224.00;;;10.62;59.04
15678;BME280;7939;50.814;6.368;2024-03-06T05:14:11;100221.50;;;10.63;59.63
15678;BME280;7939;50.814;6.368;2024-03-06T05:16:37;100223.19;;;10.63;59.61
15678;BME280;7939;50.814;6.368;2024-03-06T05:19:04;100219.75;;;10.59;59.65
15678;BME280;7939;50.814;6.368;2024-03-06T05:21:32;100229.97;;;10.62;59.53
15678;BME280;7939;50.814;6.368;2024-03-06T05:24:00;100230.00;;;10.64;59.56
15678;BME280;7939;50.814;6.368;2024-03-06T05:26:27;100229.13;;;10.59;59.27
15678;BME280;7939;50.814;6.368;2024-03-06T05:28:54;100228.28;;;10.60;59.50
15678;BME280;7939;50.814;6.368;2024-03-06T05:31:22;100237.63;;;10.59;59.12
15678;BME280;7939;50.814;6.368;2024-03-06T05:33:50;100241.00;;;10.53;59.56
15678;BME280;7939;50.814;6.368;2024-03-06T05:36:17;100238.44;;;10.52;59.20
15678;BME280;7939;50.814;6.368;2024-03-06T05:38:44;100245.25;;;10.54;58.95
15678;BME280;7939;50.814;6.368;2024-03-06T05:41:11;100249.50;;;10.51;59.04
15678;BME280;7939;50.814;6.368;2024-03-06T05:43:38;100245.25;;;10.54;59.37
15678;BME280;7939;50.814;6.368;2024-03-06T05:46:06;100252.06;;;10.51;59.07
15678;BME280;7939;50.814;6.368;2024-03-06T05:48:34;100255.44;;;10.48;59.41
15678;BME280;7939;50.814;6.368;2024-03-06T05:51:01;100260.59;;;10.50;59.03
15678;BME280;7939;50.814;6.368;2024-03-06T05:53:28;100263.09;;;10.48;59.32
15678;BME280;7939;50.814;6.368;2024-03-06T05:55:55;100269.91;;;10.46;59.06
15678;BME280;7939;50.814;6.368;2024-03-06T05:58:22;100265.66;;;10.45;59.40
15678;BME280;7939;50.814;6.368;2024-03-06T06:00:49;100268.19;;;10.45;59.38
15678;BME280;7939;50.814;6.368;2024-03-06T06:03:15;100273.31;;;10.47;59.01
15678;BME280;7939;50.814;6.368;2024-03-06T06:05:44;100272.41;;;10.42;58.93
15678;BME280;7939;50.814;6.368;2024-03-06T06:08:10;100282.63;;;10.42;59.29
15678;BME280;7939;50.814;6.368;2024-03-06T06:10:37;100282.69;;;10.45;58.87
15678;BME280;7939;50.814;6.368;2024-03-06T06:13:04;100288.59;;;10.42;59.51
15678;BME280;7939;50.814;6.368;2024-03-06T06:15:31;100288.59;;;10.42;59.32
15678;BME280;7939;50.814;6.368;2024-03-06T06:17:58;100293.69;;;10.41;59.29
15678;BME280;7939;50.814;6.368;2024-03-06T06:20:25;100298.81;;;10.39;59.08
15678;BME280;7939;50.814;6.368;2024-03-06T06:22:53;100303.06;;;10.40;59.62
15678;BME280;7939;50.814;6.368;2024-03-06T06:25:20;100302.22;;;10.38;59.54
15678;BME280;7939;50.814;6.368;2024-03-06T06:27:46;100308.16;;;10.37;59.35
15678;BME280;7939;50.814;6.368;2024-03-06T06:30:14;100318.38;;;10.37;59.13
15678;BME280;7939;50.814;6.368;2024-03-06T06:32:41;100315.78;;;10.33;58.98
15678;BME280;7939;50.814;6.368;2024-03-06T06:35:09;100317.50;;;10.37;58.96
15678;BME280;7939;50.814;6.368;2024-03-06T06:37:37;100339.63;;;10.36;59.17
15678;BME280;7939;50.814;6.368;2024-03-06T06:40:06;100326.88;;;10.36;58.82
15678;BME280;7939;50.814;6.368;2024-03-06T06:42:34;100328.56;;;10.36;59.17
15678;BME280;7939;50.814;6.368;2024-03-06T06:45:01;100325.16;;;10.35;58.92
15678;BME280;7939;50.814;6.368;2024-03-06T06:47:28;100329.41;;;10.36;59.26
15678;BME280;7939;50.814;6.368;2024-03-06T06:49:55;100340.47;;;10.35;59.39
15678;BME280;7939;50.814;6.368;2024-03-06T06:52:22;100337.91;;;10.32;59.27
15678;BME280;7939;50.814;6.368;2024-03-06T06:54:49;100338.75;;;10.33;59.53
15678;BME280;7939;50.814;6.368;2024-03-06T06:57:18;100349.00;;;10.34;59.10
15678;BME280;7939;50.814;6.368;2024-03-06T06:59:45;100349.84;;;10.35;59.06
15678;BME280;7939;50.814;6.368;2024-03-06T07:02:12;100344.72;;;10.33;59.19
15678;BME280;7939;50.814;6.368;2024-03-06T07:04:38;100353.25;;;10.35;58.96
15678;BME280;7939;50.814;6.368;2024-03-06T07:07:05;100348.13;;;10.32;59.20
15678;BME280;7939;50.814;6.368;2024-03-06T07:09:32;100353.25;;;10.35;59.29
15678;BME280;7939;50.814;6.368;2024-03-06T07:11:59;100359.22;;;10.33;59.35
15678;BME280;7939;50.814;6.368;2024-03-06T07:14:27;100361.75;;;10.34;59.98
15678;BME280;7939;50.814;6.368;2024-03-06T07:16:54;100362.63;;;10.33;59.45
15678;BME280;7939;50.814;6.368;2024-03-06T07:19:20;100360.06;;;10.33;59.33
15678;BME280;7939;50.814;6.368;2024-03-06T07:21:47;100360.94;;;10.37;59.17
15678;BME280;7939;50.814;6.368;2024-03-06T07:24:14;100365.16;;;10.33;59.45
15678;BME280;7939;50.814;6.368;2024-03-06T07:26:40;100368.59;;;10.35;59.37
15678;BME280;7939;50.814;6.368;2024-03-06T07:29:07;100366.03;;;10.37;59.36
15678;BME280;7939;50.814;6.368;2024-03-06T07:31:41;100371.19;;;10.38;59.60
15678;BME280;7939;50.814;6.368;2024-03-06T07:34:09;100373.75;;;10.38;59.27
15678;BME280;7939;50.814;6.368;2024-03-06T07:36:36;100379.72;;;10.39;59.35
15678;BME280;7939;50.814;6.368;2024-03-06T07:39:03;100385.66;;;10.39;59.39
15678;BME280;7939;50.814;6.368;2024-03-06T07:41:30;100378.88;;;10.41;58.95
15678;BME280;7939;50.814;6.368;2024-03-06T07:43:58;100378.00;;;10.41;59.53
15678;BME280;7939;50.814;6.368;2024-03-06T07:46:25;100383.13;;;10.39;59.55
15678;BME280;7939;50.814;6.368;2024-03-06T07:48:53;100383.97;;;10.38;59.93
15678;BME280;7939;50.814;6.368;2024-03-06T07:51:20;100395.91;;;10.41;59.49
15678;BME280;7939;50.814;6.368;2024-03-06T07:53:47;100399.31;;;10.41;59.54
15678;BME280;7939;50.814;6.368;2024-03-06T07:56:15;100406.13;;;10.42;60.00
15678;BME280;7939;50.814;6.368;2024-03-06T07:58:42;100408.72;;;10.44;59.40
15678;BME280;7939;50.814;6.368;2024-03-06T08:01:09;100408.75;;;10.47;59.38
15678;BME280;7939;50.814;6.368;2024-03-06T08:03:38;100402.78;;;10.49;60.31
15678;BME280;7939;50.814;6.368;2024-03-06T08:06:07;100406.25;;;10.51;59.48
15678;BME280;7939;50.814;6.368;2024-03-06T08:08:34;100409.66;;;10.53;59.41
15678;BME280;7939;50.814;6.368;2024-03-06T08:11:01;100407.94;;;10.52;59.60
15678;BME280;7939;50.814;6.368;2024-03-06T08:13:28;100407.94;;;10.52;59.53
15678;BME280;7939;50.814;6.368;2024-03-06T08:15:55;100411.38;;;10.54;59.39
15678;BME280;7939;50.814;6.368;2024-03-06T08:18:21;100407.97;;;10.54;59.82
15678;BME280;7939;50.814;6.368;2024-03-06T08:20:48;100414.78;;;10.55;59.62
15678;BME280;7939;50.814;6.368;2024-03-06T08:23:16;100419.94;;;10.58;60.42
15678;BME280;7939;50.814;6.368;2024-03-06T08:25:43;100419.94;;;10.60;60.30
15678;BME280;7939;50.814;6.368;2024-03-06T08:28:10;100423.34;;;10.62;59.57
15678;BME280;7939;50.814;6.368;2024-03-06T08:30:37;100414.88;;;10.63;60.25
15678;BME280;7939;50.814;6.368;2024-03-06T08:33:04;100417.44;;;10.63;59.91
15678;BME280;7939;50.814;6.368;2024-03-06T08:35:31;100430.22;;;10.66;59.75
15678;BME280;7939;50.814;6.368;2024-03-06T08:37:58;100427.69;;;10.67;59.86
15678;BME280;7939;50.814;6.368;2024-03-06T08:40:26;100429.38;;;10.68;60.46
15678;BME280;7939;50.814;6.368;2024-03-06T08:42:53;100438.81;;;10.71;60.32
15678;BME280;7939;50.814;6.368;2024-03-06T08:45:20;100438.81;;;10.71;59.91
15678;BME280;7939;50.814;6.368;2024-03-06T08:47:48;100446.47;;;10.72;59.80
15678;BME280;7939;50.814;6.368;2024-03-06T08:50:14;100445.69;;;10.75;60.02
15678;BME280;7939;50.814;6.368;2024-03-06T08:52:41;100445.69;;;10.76;59.89
15678;BME280;7939;50.814;6.368;2024-03-06T08:55:09;100441.44;;;10.78;59.65
15678;BME280;7939;50.814;6.368;2024-03-06T08:57:38;100449.91;;;10.74;59.81
15678;BME280;7939;50.814;6.368;2024-03-06T09:00:06;100449.94;;;10.77;60.30
15678;BME280;7939;50.814;6.368;2024-03-06T09:02:36;100449.09;;;10.75;60.57
15678;BME280;7939;50.814;6.368;2024-03-06T09:05:04;100456.75;;;10.75;61.68
15678;BME280;7939;50.814;6.368;2024-03-06T09:07:31;100460.09;;;10.70;61.21
15678;BME280;7939;50.814;6.368;2024-03-06T09:10:03;100459.19;;;10.65;61.35
15678;BME280;7939;50.814;6.368;2024-03-06T09:12:31;100468.56;;;10.66;61.21
15678;BME280;7939;50.814;6.368;2024-03-06T09:15:00;100460.97;;;10.72;60.87
15678;BME280;7939;50.814;6.368;2024-03-06T09:17:26;100464.47;;;10.82;60.47
15678;BME280;7939;50.814;6.368;2024-03-06T09:19:53;100467.03;;;10.82;60.61
15678;BME280;7939;50.814;6.368;2024-03-06T09:22:20;100460.28;;;10.88;61.10
15678;BME280;7939;50.814;6.368;2024-03-06T09:24:47;100464.44;;;10.80;60.54
15678;BME280;7939;50.814;6.368;2024-03-06T09:27:14;100467.91;;;10.84;61.23
15678;BME280;7939;50.814;6.368;2024-03-06T09:29:41;100467.97;;;10.90;61.33
15678;BME280;7939;50.814;6.368;2024-03-06T09:32:09;100467.03;;;10.82;60.83
15678;BME280;7939;50.814;6.368;2024-03-06T09:34:38;100479.13;;;10.98;61.20
15678;BME280;7939;50.814;6.368;2024-03-06T09:37:05;100471.44;;;10.99;61.15
15678;BME280;7939;50.814;6.368;2024-03-06T09:39:31;100483.41;;;11.00;60.62
15678;BME280;7939;50.814;6.368;2024-03-06T09:41:59;100479.16;;;11.01;60.48
15678;BME280;7939;50.814;6.368;2024-03-06T09:44:27;100487.69;;;11.03;60.64
15678;BME280;7939;50.814;6.368;2024-03-06T09:46:54;100484.28;;;11.05;60.99
15678;BME280;7939;50.814;6.368;2024-03-06T09:49:22;100486.84;;;11.04;60.02
15678;BME280;7939;50.814;6.368;2024-03-06T09:51:49;100485.31;;;11.20;60.91
15678;BME280;7939;50.814;6.368;2024-03-06T09:54:16;100493.88;;;11.26;60.95
15678;BME280;7939;50.814;6.368;2024-03-06T09:56:44;100481.09;;;11.29;60.71
15678;BME280;7939;50.814;6.368;2024-03-06T09:59:11;100485.38;;;11.30;60.01
15678;BME280;7939;50.814;6.368;2024-03-06T10:01:40;100488.84;;;11.35;60.38
15678;BME280;7939;50.814;6.368;2024-03-06T10:04:23;100482.88;;;11.37;60.09
15678;BME280;7939;50.814;6.368;2024-03-06T10:06:52;100483.72;;;11.35;60.62
15678;BME280;7939;50.814;6.368;2024-03-06T10:09:20;100485.41;;;11.37;59.93
15678;BME280;7939;50.814;6.368;2024-03-06T10:11:48;100482.06;;;11.42;60.09
15678;BME280;7939;50.814;6.368;2024-03-06T10:14:15;100487.22;;;11.48;59.83
15678;BME280;7939;50.814;6.368;2024-03-06T10:16:52;100485.56;;;11.52;59.74
15678;BME280;7939;50.814;6.368;2024-03-06T10:19:19;100488.13;;;11.53;60.07
15678;BME280;7939;50.814;6.368;2024-03-06T10:21:48;100491.53;;;11.55;60.23
15678;BME280;7939;50.814;6.368;2024-03-06T10:24:20;100495.84;;;11.61;59.75
15678;BME280;7939;50.814;6.368;2024-03-06T10:26:48;100500.91;;;11.55;59.01
15678;BME280;7939;50.814;6.368;2024-03-06T10:29:16;100498.41;;;11.62;59.57
15678;BME280;7939;50.814;6.368;2024-03-06T10:31:48;100504.44;;;11.66;59.73
15678;BME280;7939;50.814;6.368;2024-03-06T10:34:16;100503.66;;;11.78;59.72
15678;BME280;7939;50.814;6.368;2024-03-06T10:36:43;100502.03;;;11.83;59.39
15678;BME280;7939;50.814;6.368;2024-03-06T10:39:12;100502.03;;;11.84;59.85
15678;BME280;7939;50.814;6.368;2024-03-06T10:41:40;100512.31;;;11.89;59.41
15678;BME280;7939;50.814;6.368;2024-03-06T10:44:11;100504.59;;;11.87;58.66
15678;BME280;7939;50.814;6.368;2024-03-06T10:46:42;100508.00;;;11.86;59.58
15678;BME280;7939;50.814;6.368;2024-03-06T10:49:11;100508.91;;;11.92;59.05
15678;BME280;7939;50.814;6.368;2024-03-06T10:51:40;100514.06;;;11.95;58.96
15678;BME280;7939;50.814;6.368;2024-03-06T10:54:09;100510.66;;;11.96;59.09
15678;BME280;7939;50.814;6.368;2024-03-06T10:56:40;100518.31;;;11.99;58.28
15678;BME280;7939;50.814;6.368;2024-03-06T10:59:10;100519.22;;;12.02;58.67
15678;BME280;7939;50.814;6.368;2024-03-06T11:01:37;100513.56;;;12.72;62.80
15678;BME280;7939;50.814;6.368;2024-03-06T11:04:05;100505.97;;;13.67;60.22
15678;BME280;7939;50.814;6.368;2024-03-06T11:06:33;100514.38;;;14.47;57.53
15678;BME280;7939;50.814;6.368;2024-03-06T11:09:00;100517.97;;;13.77;55.53
15678;BME280;7939;50.814;6.368;2024-03-06T11:11:27;100510.28;;;13.53;56.32
15678;BME280;7939;50.814;6.368;2024-03-06T11:14:00;100519.66;;;13.38;55.17
15678;BME280;7939;50.814;6.368;2024-03-06T11:16:29;100522.25;;;13.21;55.80
15678;BME280;7939;50.814;6.368;2024-03-06T11:19:05;100518.78;;;13.18;56.21
15678;BME280;7939;50.814;6.368;2024-03-06T11:21:32;100520.47;;;13.17;56.81
15678;BME280;7939;50.814;6.368;2024-03-06T11:24:19;100517.91;;;13.10;56.16
15678;BME280;7939;50.814;6.368;2024-03-06T11:26:46;100516.19;;;13.12;55.81
15678;BME280;7939;50.814;6.368;2024-03-06T11:29:17;100515.34;;;13.08;55.89
15678;BME280;7939;50.814;6.368;2024-03-06T11:32:02;100519.63;;;13.11;56.90
15678;BME280;7939;50.814;6.368;2024-03-06T11:34:29;100525.59;;;13.10;56.40
15678;BME280;7939;50.814;6.368;2024-03-06T11:36:57;100520.47;;;13.11;57.08
15678;BME280;7939;50.814;6.368;2024-03-06T11:39:27;100521.31;;;13.04;56.37
15678;BME280;7939;50.814;6.368;2024-03-06T11:41:54;100518.75;;;13.01;56.47
15678;BME280;7939;50.814;6.368;2024-03-06T11:44:23;100524.75;;;13.05;56.79
15678;BME280;7939;50.814;6.368;2024-03-06T11:46:57;100523.03;;;13.04;57.22
15678;BME280;7939;50.814;6.368;2024-03-06T11:49:26;100523.00;;;12.99;56.94
15678;BME280;7939;50.814;6.368;2024-03-06T11:51:55;100536.69;;;13.00;56.66
15678;BME280;7939;50.814;6.368;2024-03-06T11:54:22;100523.00;;;12.99;56.66
15678;BME280;7939;50.814;6.368;2024-03-06T11:56:53;100523.00;;;13.01;56.40
15678;BME280;7939;50.814;6.368;2024-03-06T11:59:22;100529.03;;;13.01;56.79
15678;BME280;7939;50.814;6.368;2024-03-06T12:01:50;100524.72;;;12.95;56.17
15678;BME280;7939;50.814;6.368;2024-03-06T12:04:18;100525.59;;;12.96;56.48
15678;BME280;7939;50.814;6.368;2024-03-06T12:06:45;100524.72;;;12.97;57.20
15678;BME280;7939;50.814;6.368;2024-03-06T12:09:12;100528.16;;;12.98;56.37
15678;BME280;7939;50.814;6.368;2024-03-06T12:11:39;100522.16;;;12.97;56.82
15678;BME280;7939;50.814;6.368;2024-03-06T12:14:06;100529.00;;;12.98;55.97
15678;BME280;7939;50.814;6.368;2024-03-06T12:16:36;100529.00;;;12.96;56.34
15678;BME280;7939;50.814;6.368;2024-03-06T12:19:03;100525.56;;;12.99;55.22
15678;BME280;7939;50.814;6.368;2024-03-06T12:21:31;100529.03;;;13.01;55.80
15678;BME280;7939;50.814;6.368;2024-03-06T12:24:08;100534.13;;;12.93;55.65
15678;BME280;7939;50.814;6.368;2024-03-06T12:26:36;100518.75;;;12.95;55.70
15678;BME280;7939;50.814;6.368;2024-03-06T12:29:06;100523.00;;;12.93;56.09
15678;BME280;7939;50.814;6.368;2024-03-06T12:31:37;100539.25;;;12.92;55.88
15678;BME280;7939;50.814;6.368;2024-03-06T12:34:06;100525.56;;;12.93;55.21
15678;BME280;7939;50.814;6.368;2024-03-06T12:36:33;100529.84;;;12.94;56.29
15678;BME280;7939;50.814;6.368;2024-03-06T12:39:01;100525.59;;;12.98;55.95
15678;BME280;7939;50.814;6.368;2024-03-06T12:41:28;100520.44;;;13.01;56.34
15678;BME280;7939;50.814;6.368;2024-03-06T12:43:55;100525.59;;;12.96;54.72
15678;BME280;7939;50.814;6.368;2024-03-06T12:46:23;100538.41;;;12.99;54.68
15678;BME280;7939;50.814;6.368;2024-03-06T12:48:53;100535.00;;;12.95;54.79
15678;BME280;7939;50.814;6.368;2024-03-06T12:51:19;100528.13;;;12.94;55.12
15678;BME280;7939;50.814;6.368;2024-03-06T12:53:47;100533.28;;;12.98;55.38
15678;BME280;7939;50.814;6.368;2024-03-06T12:56:14;100529.00;;;13.00;55.92
15678;BME280;7939;50.814;6.368;2024-03-06T12:58:41;100527.28;;;12.99;55.27
15678;BME280;7939;50.814;6.368;2024-03-06T13:01:08;100524.72;;;12.99;55.21